This is the latest recevied weather packets stored in our database for station/object BM6HML-1. If no packets are shown the sender has not sent any weather packets the latest 10 day(s).
| Time | Temp. | Humidity | Pressure | Rain* | Wind** | Luminosity | Snow |
|---|---|---|---|---|---|---|---|
| 1778010860 | 31.11° C | 72% | 1010.8 hPa | - | - | - | - |
| 1778009660 | 31.11° C | 71% | 1010.8 hPa | - | - | - | - |
| 1778008460 | 31.11° C | 72% | 1010.6 hPa | - | - | - | - |
| 1778007260 | 30.56° C | 72% | 1010.5 hPa | - | - | - | - |
| 1778006060 | 31.11° C | 71% | 1010.7 hPa | - | - | - | - |
| 1778004859 | 31.11° C | 71% | 1010.6 hPa | - | - | - | - |
| 1778003660 | 31.11° C | 71% | 1010.4 hPa | - | - | - | - |
| 1778002460 | 31.11° C | 72% | 1010.5 hPa | - | - | - | - |
| 1778001260 | 31.11° C | 72% | 1010.8 hPa | - | - | - | - |
| 1778000060 | 31.11° C | 70% | 1010.8 hPa | - | - | - | - |
| 1777998860 | 31.11° C | 70% | 1010.8 hPa | - | - | - | - |
| 1777997660 | 31.11° C | 70% | 1011.1 hPa | - | - | - | - |
| 1777996460 | 31.11° C | 70% | 1011.2 hPa | - | - | - | - |
| 1777995260 | 31.11° C | 70% | 1011.3 hPa | - | - | - | - |
| 1777994059 | 31.11° C | 71% | 1011.5 hPa | - | - | - | - |
| 1777992860 | 31.11° C | 70% | 1011.7 hPa | - | - | - | - |
| 1777991660 | 31.11° C | 70% | 1011.7 hPa | - | - | - | - |
| 1777990460 | 31.11° C | 72% | 1011.8 hPa | - | - | - | - |
| 1777989260 | 29.44° C | 77% | 1011.8 hPa | - | - | - | - |
| 1777988060 | 28.89° C | 79% | 1011.7 hPa | - | - | - | - |
| 1777986860 | 28.89° C | 78% | 1011.8 hPa | - | - | - | - |
| 1777985660 | 31.11° C | 70% | 1011.7 hPa | - | - | - | - |
| 1777984460 | 31.67° C | 69% | 1011.4 hPa | - | - | - | - |
| 1777983260 | 31.67° C | 69% | 1011.4 hPa | - | - | - | - |
| 1777982059 | 31.67° C | 69% | 1011.3 hPa | - | - | - | - |
* Rain since midnight (hover to see other rain measurements)
** Current wind speed in m/s (hover to see current wind gust speed)